sensor_id;sensor_type;location;lat;lon;timestamp;pressure;altitude;pressure_sealevel;temperature;humidity
61906;BME280;47863;55.766;37.672;2023-07-13T00:00:26;98953.09;;;14.13;64.19
61906;BME280;47863;55.766;37.672;2023-07-13T00:02:51;98966.59;;;14.20;64.27
61906;BME280;47863;55.766;37.672;2023-07-13T00:05:21;98954.16;;;14.12;64.11
61906;BME280;47863;55.766;37.672;2023-07-13T00:07:48;98972.81;;;14.20;64.21
61906;BME280;47863;55.766;37.672;2023-07-13T00:10:14;98966.59;;;14.20;64.09
61906;BME280;47863;55.766;37.672;2023-07-13T00:12:40;98969.50;;;14.18;64.31
61906;BME280;47863;55.766;37.672;2023-07-13T00:15:12;98963.88;;;14.13;64.62
61906;BME280;47863;55.766;37.672;2023-07-13T00:17:38;98972.38;;;14.17;64.58
61906;BME280;47863;55.766;37.672;2023-07-13T00:20:05;98949.34;;;14.01;64.44
61906;BME280;47863;55.766;37.672;2023-07-13T00:22:32;98960.13;;;14.07;64.53
61906;BME280;47863;55.766;37.672;2023-07-13T00:24:58;98969.25;;;14.13;64.45
61906;BME280;47863;55.766;37.672;2023-07-13T00:27:24;98940.84;;;13.97;64.81
61906;BME280;47863;55.766;37.672;2023-07-13T00:29:52;98950.81;;;13.97;64.84
61906;BME280;47863;55.766;37.672;2023-07-13T00:32:18;98961.78;;;14.02;64.93
61906;BME280;47863;55.766;37.672;2023-07-13T00:34:43;98938.34;;;13.89;65.71
61906;BME280;47863;55.766;37.672;2023-07-13T00:37:09;98963.00;;;13.99;65.61
61906;BME280;47863;55.766;37.672;2023-07-13T00:39:35;98953.88;;;13.94;65.67
61906;BME280;47863;55.766;37.672;2023-07-13T00:42:02;98957.38;;;13.87;65.70
61906;BME280;47863;55.766;37.672;2023-07-13T00:44:28;98947.00;;;13.78;65.92
61906;BME280;47863;55.766;37.672;2023-07-13T00:46:53;98965.03;;;13.84;66.18
61906;BME280;47863;55.766;37.672;2023-07-13T00:49:23;98956.13;;;13.77;65.73
61906;BME280;47863;55.766;37.672;2023-07-13T00:51:58;98969.78;;;13.82;66.00
61906;BME280;47863;55.766;37.672;2023-07-13T00:54:29;98975.59;;;13.79;66.53
61906;BME280;47863;55.766;37.672;2023-07-13T00:57:00;98946.56;;;13.67;66.57
61906;BME280;47863;55.766;37.672;2023-07-13T00:59:27;98959.03;;;13.75;66.35
61906;BME280;47863;55.766;37.672;2023-07-13T01:01:53;98934.13;;;13.60;66.67
61906;BME280;47863;55.766;37.672;2023-07-13T01:04:20;98959.22;;;13.74;66.47
61906;BME280;47863;55.766;37.672;2023-07-13T01:06:46;98956.94;;;13.71;66.46
61906;BME280;47863;55.766;37.672;2023-07-13T01:09:13;98925.63;;;13.56;66.31
61906;BME280;47863;55.766;37.672;2023-07-13T01:11:40;98951.75;;;13.76;66.39
61906;BME280;47863;55.766;37.672;2023-07-13T01:14:07;98945.38;;;13.77;66.42
61906;BME280;47863;55.766;37.672;2023-07-13T01:16:34;98955.28;;;13.76;66.39
61906;BME280;47863;55.766;37.672;2023-07-13T01:19:03;98958.19;;;13.75;66.61
61906;BME280;47863;55.766;37.672;2023-07-13T01:21:34;98936.41;;;13.63;66.53
61906;BME280;47863;55.766;37.672;2023-07-13T01:24:00;98957.56;;;13.73;66.59
61906;BME280;47863;55.766;37.672;2023-07-13T01:26:27;98941.81;;;13.69;66.81
61906;BME280;47863;55.766;37.672;2023-07-13T01:28:53;98953.19;;;13.72;67.03
61906;BME280;47863;55.766;37.672;2023-07-13T01:31:18;98938.25;;;13.62;66.71
61906;BME280;47863;55.766;37.672;2023-07-13T01:33:44;98934.56;;;13.70;67.33
61906;BME280;47863;55.766;37.672;2023-07-13T01:36:11;98929.16;;;13.63;66.91
61906;BME280;47863;55.766;37.672;2023-07-13T01:38:37;98934.97;;;13.67;67.85
61906;BME280;47863;55.766;37.672;2023-07-13T01:41:03;98920.47;;;13.55;67.52
61906;BME280;47863;55.766;37.672;2023-07-13T01:43:29;98944.50;;;13.69;67.62
61906;BME280;47863;55.766;37.672;2023-07-13T01:45:55;98941.19;;;13.67;67.53
61906;BME280;47863;55.766;37.672;2023-07-13T01:48:20;98937.66;;;13.67;67.46
61906;BME280;47863;55.766;37.672;2023-07-13T01:50:47;98905.50;;;13.45;67.26
61906;BME280;47863;55.766;37.672;2023-07-13T01:53:13;98938.50;;;13.67;67.71
61906;BME280;47863;55.766;37.672;2023-07-13T01:55:39;98927.94;;;13.66;67.52
61906;BME280;47863;55.766;37.672;2023-07-13T01:58:05;98940.38;;;13.67;67.77
61906;BME280;47863;55.766;37.672;2023-07-13T02:00:31;98906.78;;;13.49;68.15
61906;BME280;47863;55.766;37.672;2023-07-13T02:02:57;98930.63;;;13.66;67.51
61906;BME280;47863;55.766;37.672;2023-07-13T02:05:22;98925.03;;;13.67;67.47
61906;BME280;47863;55.766;37.672;2023-07-13T02:07:48;98862.03;;;13.35;67.66
61906;BME280;47863;55.766;37.672;2023-07-13T02:10:15;98918.84;;;13.67;67.80
61906;BME280;47863;55.766;37.672;2023-07-13T02:12:41;98924.22;;;13.74;67.90
61906;BME280;47863;55.766;37.672;2023-07-13T02:15:07;98917.41;;;13.71;67.92
61906;BME280;47863;55.766;37.672;2023-07-13T02:17:35;98921.16;;;13.77;67.96
61906;BME280;47863;55.766;37.672;2023-07-13T02:20:02;98922.59;;;13.86;67.66
61906;BME280;47863;55.766;37.672;2023-07-13T02:22:32;98887.38;;;13.67;67.49
61906;BME280;47863;55.766;37.672;2023-07-13T02:24:58;98926.56;;;13.97;67.39
61906;BME280;47863;55.766;37.672;2023-07-13T02:27:23;98907.91;;;13.95;67.30
61906;BME280;47863;55.766;37.672;2023-07-13T02:29:49;98909.78;;;14.01;67.18
61906;BME280;47863;55.766;37.672;2023-07-13T02:32:17;98903.97;;;13.98;67.28
61906;BME280;47863;55.766;37.672;2023-07-13T02:34:43;98877.69;;;13.93;67.04
61906;BME280;47863;55.766;37.672;2023-07-13T02:37:08;98920.16;;;14.18;66.97
61906;BME280;47863;55.766;37.672;2023-07-13T02:39:34;98905.06;;;14.17;67.03
61906;BME280;47863;55.766;37.672;2023-07-13T02:42:00;98899.66;;;14.17;67.19
61906;BME280;47863;55.766;37.672;2023-07-13T02:44:26;98919.13;;;14.25;67.26
61906;BME280;47863;55.766;37.672;2023-07-13T02:46:53;98918.94;;;14.27;67.25
61906;BME280;47863;55.766;37.672;2023-07-13T02:49:18;98910.84;;;14.27;67.20
61906;BME280;47863;55.766;37.672;2023-07-13T02:51:44;98909.59;;;14.29;67.28
61906;BME280;47863;55.766;37.672;2023-07-13T02:54:09;98886.59;;;14.07;67.24
61906;BME280;47863;55.766;37.672;2023-07-13T02:56:37;98916.03;;;14.28;67.44
61906;BME280;47863;55.766;37.672;2023-07-13T02:59:04;98904.63;;;14.26;67.46
61906;BME280;47863;55.766;37.672;2023-07-13T03:01:30;98908.97;;;14.27;67.64
61906;BME280;47863;55.766;37.672;2023-07-13T03:03:55;98909.84;;;14.28;67.63
61906;BME280;47863;55.766;37.672;2023-07-13T03:06:21;98907.75;;;14.30;67.65
61906;BME280;47863;55.766;37.672;2023-07-13T03:08:50;98899.25;;;14.26;67.45
61906;BME280;47863;55.766;37.672;2023-07-13T03:11:20;98901.94;;;14.33;67.40
61906;BME280;47863;55.766;37.672;2023-07-13T03:13:45;98899.03;;;14.35;67.11
61906;BME280;47863;55.766;37.672;2023-07-13T03:16:12;98896.34;;;14.41;67.25
61906;BME280;47863;55.766;37.672;2023-07-13T03:18:39;98901.94;;;14.46;66.86
61906;BME280;47863;55.766;37.672;2023-07-13T03:21:05;98906.50;;;14.53;67.06
61906;BME280;47863;55.766;37.672;2023-07-13T03:23:31;98903.59;;;14.54;66.93
61906;BME280;47863;55.766;37.672;2023-07-13T03:26:08;98901.53;;;14.50;67.21
61906;BME280;47863;55.766;37.672;2023-07-13T03:28:35;98909.00;;;14.54;67.18
61906;BME280;47863;55.766;37.672;2023-07-13T03:31:03;98918.34;;;14.58;66.87
61906;BME280;47863;55.766;37.672;2023-07-13T03:33:29;98907.75;;;14.57;67.07
61906;BME280;47863;55.766;37.672;2023-07-13T03:35:55;98909.19;;;14.53;67.23
61906;BME280;47863;55.766;37.672;2023-07-13T03:38:21;98914.38;;;14.54;67.13
61906;BME280;47863;55.766;37.672;2023-07-13T03:40:47;98911.47;;;14.49;67.42
61906;BME280;47863;55.766;37.672;2023-07-13T03:43:12;98912.31;;;14.50;67.40
61906;BME280;47863;55.766;37.672;2023-07-13T03:45:38;98909.63;;;14.50;67.58
61906;BME280;47863;55.766;37.672;2023-07-13T03:48:04;98905.25;;;14.48;67.73
61906;BME280;47863;55.766;37.672;2023-07-13T03:50:30;98880.59;;;14.38;67.61
61906;BME280;47863;55.766;37.672;2023-07-13T03:52:57;98909.63;;;14.50;67.80
61906;BME280;47863;55.766;37.672;2023-07-13T03:55:23;98898.63;;;14.51;67.44
61906;BME280;47863;55.766;37.672;2023-07-13T03:57:57;98915.00;;;14.76;67.26
61906;BME280;47863;55.766;37.672;2023-07-13T04:00:23;98919.75;;;14.87;67.29
61906;BME280;47863;55.766;37.672;2023-07-13T04:02:48;98901.72;;;14.88;67.71
61906;BME280;47863;55.766;37.672;2023-07-13T04:05:15;98914.34;;;14.94;67.67
61906;BME280;47863;55.766;37.672;2023-07-13T04:07:41;98916.00;;;15.02;67.68
61906;BME280;47863;55.766;37.672;2023-07-13T04:10:06;98900.88;;;15.01;67.45
61906;BME280;47863;55.766;37.672;2023-07-13T04:12:32;98919.69;;;15.21;67.09
61906;BME280;47863;55.766;37.672;2023-07-13T04:14:58;98924.44;;;15.25;67.02
61906;BME280;47863;55.766;37.672;2023-07-13T04:17:23;98901.63;;;15.21;66.91
61906;BME280;47863;55.766;37.672;2023-07-13T04:19:49;98910.28;;;15.30;67.06
61906;BME280;47863;55.766;37.672;2023-07-13T04:22:15;98920.91;;;15.25;67.06
61906;BME280;47863;55.766;37.672;2023-07-13T04:24:40;98916.75;;;15.29;67.22
61906;BME280;47863;55.766;37.672;2023-07-13T04:27:06;98918.63;;;15.29;67.01
61906;BME280;47863;55.766;37.672;2023-07-13T04:29:32;98928.13;;;15.38;66.96
61906;BME280;47863;55.766;37.672;2023-07-13T04:31:58;98923.34;;;15.40;67.03
61906;BME280;47863;55.766;37.672;2023-07-13T04:34:24;98901.81;;;15.26;66.88
61906;BME280;47863;55.766;37.672;2023-07-13T04:36:50;98923.78;;;15.37;67.10
61906;BME280;47863;55.766;37.672;2023-07-13T04:39:16;98927.50;;;15.36;67.02
61906;BME280;47863;55.766;37.672;2023-07-13T04:41:41;98927.72;;;15.34;67.28
61906;BME280;47863;55.766;37.672;2023-07-13T04:44:07;98916.53;;;15.31;67.09
61906;BME280;47863;55.766;37.672;2023-07-13T04:46:33;98910.53;;;15.29;67.12
61906;BME280;47863;55.766;37.672;2023-07-13T04:48:58;98922.34;;;15.27;67.05
61906;BME280;47863;55.766;37.672;2023-07-13T04:51:24;98881.13;;;15.07;66.93
61906;BME280;47863;55.766;37.672;2023-07-13T04:53:50;98910.94;;;15.25;67.03
61906;BME280;47863;55.766;37.672;2023-07-13T04:56:16;98910.69;;;15.34;67.01
61906;BME280;47863;55.766;37.672;2023-07-13T04:58:41;98899.66;;;15.42;66.91
61906;BME280;47863;55.766;37.672;2023-07-13T05:01:07;98905.88;;;15.49;66.75
61906;BME280;47863;55.766;37.672;2023-07-13T05:03:34;98915.75;;;15.62;66.52
61906;BME280;47863;55.766;37.672;2023-07-13T05:06:02;98897.94;;;15.61;66.42
61906;BME280;47863;55.766;37.672;2023-07-13T05:08:28;98914.88;;;15.81;66.35
61906;BME280;47863;55.766;37.672;2023-07-13T05:10:54;98928.25;;;16.01;66.03
61906;BME280;47863;55.766;37.672;2023-07-13T05:13:20;98910.59;;;16.05;65.70
61906;BME280;47863;55.766;37.672;2023-07-13T05:15:54;98923.97;;;16.19;65.84
61906;BME280;47863;55.766;37.672;2023-07-13T05:18:20;98929.09;;;16.27;65.75
61906;BME280;47863;55.766;37.672;2023-07-13T05:20:46;98928.13;;;16.46;65.69
61906;BME280;47863;55.766;37.672;2023-07-13T05:23:11;98917.53;;;16.70;65.17
61906;BME280;47863;55.766;37.672;2023-07-13T05:25:37;98914.16;;;17.00;64.71
61906;BME280;47863;55.766;37.672;2023-07-13T05:28:02;98917.88;;;17.24;64.38
61906;BME280;47863;55.766;37.672;2023-07-13T05:30:28;98906.34;;;17.29;64.11
61906;BME280;47863;55.766;37.672;2023-07-13T05:32:53;98911.28;;;17.50;63.76
61906;BME280;47863;55.766;37.672;2023-07-13T05:35:19;98916.06;;;17.67;63.38
61906;BME280;47863;55.766;37.672;2023-07-13T05:37:44;98918.72;;;17.73;63.20
61906;BME280;47863;55.766;37.672;2023-07-13T05:40:10;98920.03;;;17.82;62.99
61906;BME280;47863;55.766;37.672;2023-07-13T05:42:36;98906.66;;;17.88;62.92
61906;BME280;47863;55.766;37.672;2023-07-13T05:45:02;98909.84;;;17.96;62.69
61906;BME280;47863;55.766;37.672;2023-07-13T05:47:29;98903.25;;;17.92;62.51
61906;BME280;47863;55.766;37.672;2023-07-13T05:49:55;98908.00;;;18.09;62.14
61906;BME280;47863;55.766;37.672;2023-07-13T05:52:21;98905.44;;;18.14;62.41
61906;BME280;47863;55.766;37.672;2023-07-13T05:54:46;98919.81;;;18.26;62.18
61906;BME280;47863;55.766;37.672;2023-07-13T05:57:12;98917.47;;;18.18;62.17
61906;BME280;47863;55.766;37.672;2023-07-13T05:59:37;98911.06;;;18.12;61.87
61906;BME280;47863;55.766;37.672;2023-07-13T06:02:03;98898.47;;;18.06;62.26
61906;BME280;47863;55.766;37.672;2023-07-13T06:04:28;98919.47;;;18.22;62.05
61906;BME280;47863;55.766;37.672;2023-07-13T06:06:54;98917.97;;;18.27;61.66
61906;BME280;47863;55.766;37.672;2023-07-13T06:09:20;98924.81;;;18.29;61.01
61906;BME280;47863;55.766;37.672;2023-07-13T06:11:45;98908.53;;;18.29;60.76
61906;BME280;47863;55.766;37.672;2023-07-13T06:14:11;98889.75;;;18.16;60.49
61906;BME280;47863;55.766;37.672;2023-07-13T06:16:36;98891.91;;;18.37;60.30
61906;BME280;47863;55.766;37.672;2023-07-13T06:19:02;98899.25;;;18.49;60.16
61906;BME280;47863;55.766;37.672;2023-07-13T06:21:27;98877.91;;;18.40;60.21
61906;BME280;47863;55.766;37.672;2023-07-13T06:23:53;98892.16;;;18.59;60.33
61906;BME280;47863;55.766;37.672;2023-07-13T06:26:20;98863.75;;;18.62;60.22
61906;BME280;47863;55.766;37.672;2023-07-13T06:28:46;98883.25;;;18.94;60.07
61906;BME280;47863;55.766;37.672;2023-07-13T06:31:13;98878.84;;;19.05;59.75
61906;BME280;47863;55.766;37.672;2023-07-13T06:33:39;98881.09;;;19.08;59.73
61906;BME280;47863;55.766;37.672;2023-07-13T06:36:06;98853.59;;;19.05;59.25
61906;BME280;47863;55.766;37.672;2023-07-13T06:38:33;98868.88;;;19.34;59.02
61906;BME280;47863;55.766;37.672;2023-07-13T06:40:58;98873.06;;;19.54;58.65
61906;BME280;47863;55.766;37.672;2023-07-13T06:43:24;98875.47;;;19.79;58.07
61906;BME280;47863;55.766;37.672;2023-07-13T06:45:51;98884.50;;;20.13;57.64
61906;BME280;47863;55.766;37.672;2023-07-13T06:48:18;98876.66;;;20.34;56.88
61906;BME280;47863;55.766;37.672;2023-07-13T06:50:45;98875.09;;;20.55;56.76
61906;BME280;47863;55.766;37.672;2023-07-13T06:53:12;98878.50;;;20.62;56.42
61906;BME280;47863;55.766;37.672;2023-07-13T06:55:38;98884.09;;;20.72;56.30
61906;BME280;47863;55.766;37.672;2023-07-13T06:58:05;98882.34;;;20.49;56.90
61906;BME280;47863;55.766;37.672;2023-07-13T07:00:31;98887.63;;;20.22;57.40
61906;BME280;47863;55.766;37.672;2023-07-13T07:02:57;98890.69;;;19.80;57.73
61906;BME280;47863;55.766;37.672;2023-07-13T07:05:22;98879.34;;;19.42;58.37
61906;BME280;47863;55.766;37.672;2023-07-13T07:07:50;98897.00;;;19.16;58.62
61906;BME280;47863;55.766;37.672;2023-07-13T07:10:16;98868.72;;;18.89;59.09
61906;BME280;47863;55.766;37.672;2023-07-13T07:12:42;98879.13;;;18.80;59.13
61906;BME280;47863;55.766;37.672;2023-07-13T07:15:08;98883.94;;;18.66;59.30
61906;BME280;47863;55.766;37.672;2023-07-13T07:17:33;98866.47;;;18.38;59.23
61906;BME280;47863;55.766;37.672;2023-07-13T07:19:59;98884.59;;;18.38;59.27
61906;BME280;47863;55.766;37.672;2023-07-13T07:22:24;98871.75;;;18.33;58.90
61906;BME280;47863;55.766;37.672;2023-07-13T07:24:53;98880.50;;;18.47;58.57
61906;BME280;47863;55.766;37.672;2023-07-13T07:27:20;98866.44;;;18.50;58.24
61906;BME280;47863;55.766;37.672;2023-07-13T07:29:45;98866.44;;;18.74;58.19
61906;BME280;47863;55.766;37.672;2023-07-13T07:32:11;98891.00;;;19.02;57.76
61906;BME280;47863;55.766;37.672;2023-07-13T07:34:37;98889.69;;;19.17;57.79
61906;BME280;47863;55.766;37.672;2023-07-13T07:37:03;98900.75;;;19.27;57.52
61906;BME280;47863;55.766;37.672;2023-07-13T07:39:29;98911.72;;;19.32;57.50
61906;BME280;47863;55.766;37.672;2023-07-13T07:41:55;98901.25;;;19.12;56.19
61906;BME280;47863;55.766;37.672;2023-07-13T07:44:20;98911.06;;;19.01;56.51
61906;BME280;47863;55.766;37.672;2023-07-13T07:46:46;98920.63;;;18.92;57.04
61906;BME280;47863;55.766;37.672;2023-07-13T07:49:12;98921.06;;;18.77;56.74
61906;BME280;47863;55.766;37.672;2023-07-13T07:51:37;98918.84;;;18.62;56.80
61906;BME280;47863;55.766;37.672;2023-07-13T07:54:04;98923.66;;;18.49;57.14
61906;BME280;47863;55.766;37.672;2023-07-13T07:56:30;98921.75;;;18.37;57.30
61906;BME280;47863;55.766;37.672;2023-07-13T07:58:56;98905.22;;;18.27;57.72
61906;BME280;47863;55.766;37.672;2023-07-13T08:01:22;98889.13;;;18.02;57.51
61906;BME280;47863;55.766;37.672;2023-07-13T08:03:48;98898.09;;;18.02;57.31
61906;BME280;47863;55.766;37.672;2023-07-13T08:06:13;98916.25;;;18.02;57.75
61906;BME280;47863;55.766;37.672;2023-07-13T08:08:40;98906.47;;;17.82;58.12
61906;BME280;47863;55.766;37.672;2023-07-13T08:11:07;98916.72;;;17.80;58.16
61906;BME280;47863;55.766;37.672;2023-07-13T08:13:33;98906.75;;;17.62;58.49
61906;BME280;47863;55.766;37.672;2023-07-13T08:15:59;98888.22;;;17.48;58.64
61906;BME280;47863;55.766;37.672;2023-07-13T08:18:25;98912.75;;;17.64;58.87
61906;BME280;47863;55.766;37.672;2023-07-13T08:20:53;98914.34;;;17.72;58.69
61906;BME280;47863;55.766;37.672;2023-07-13T08:23:22;98906.09;;;17.79;58.72
61906;BME280;47863;55.766;37.672;2023-07-13T08:25:54;98914.41;;;17.84;58.70
61906;BME280;47863;55.766;37.672;2023-07-13T08:28:21;98895.94;;;17.93;58.57
61906;BME280;47863;55.766;37.672;2023-07-13T08:30:47;98896.91;;;17.98;58.17
61906;BME280;47863;55.766;37.672;2023-07-13T08:33:18;98898.69;;;18.04;58.11
61906;BME280;47863;55.766;37.672;2023-07-13T08:35:48;98895.50;;;17.96;58.08
61906;BME280;47863;55.766;37.672;2023-07-13T08:38:15;98891.53;;;17.80;58.45
61906;BME280;47863;55.766;37.672;2023-07-13T08:40:41;98916.59;;;17.75;58.78
61906;BME280;47863;55.766;37.672;2023-07-13T08:43:15;98898.19;;;17.47;59.37
61906;BME280;47863;55.766;37.672;2023-07-13T08:45:46;98906.53;;;17.45;59.65
61906;BME280;47863;55.766;37.672;2023-07-13T08:48:24;98910.16;;;17.39;59.87
61906;BME280;47863;55.766;37.672;2023-07-13T08:50:59;98909.81;;;17.36;59.91
61906;BME280;47863;55.766;37.672;2023-07-13T08:53:34;98917.63;;;17.44;59.78
61906;BME280;47863;55.766;37.672;2023-07-13T08:56:02;98897.00;;;17.43;59.78
61906;BME280;47863;55.766;37.672;2023-07-13T08:58:28;98925.34;;;17.59;59.68
61906;BME280;47863;55.766;37.672;2023-07-13T09:01:15;98927.06;;;17.72;59.75
61906;BME280;47863;55.766;37.672;2023-07-13T09:04:08;98930.34;;;17.92;59.55
61906;BME280;47863;55.766;37.672;2023-07-13T09:09:19;98838.38;;;17.37;59.76
61906;BME280;47863;55.766;37.672;2023-07-13T09:17:03;98948.41;;;17.80;60.56
61906;BME280;47863;55.766;37.672;2023-07-13T09:19:31;98932.19;;;17.61;60.86
61906;BME280;47863;55.766;37.672;2023-07-13T09:21:59;98952.47;;;17.71;61.02
61906;BME280;47863;55.766;37.672;2023-07-13T09:24:38;98956.09;;;17.64;61.60
61906;BME280;47863;55.766;37.672;2023-07-13T09:27:24;98940.38;;;17.55;61.50
61906;BME280;47863;55.766;37.672;2023-07-13T09:32:39;98937.53;;;17.50;61.89
61906;BME280;47863;55.766;37.672;2023-07-13T09:35:15;98961.22;;;17.54;62.64
61906;BME280;47863;55.766;37.672;2023-07-13T09:37:44;98949.03;;;17.45;62.46
61906;BME280;47863;55.766;37.672;2023-07-13T09:40:21;98942.72;;;17.33;62.93
61906;BME280;47863;55.766;37.672;2023-07-13T09:42:53;98934.91;;;17.24;62.74
61906;BME280;47863;55.766;37.672;2023-07-13T09:45:29;98948.44;;;17.24;62.87
61906;BME280;47863;55.766;37.672;2023-07-13T09:48:15;98953.38;;;17.09;63.37
61906;BME280;47863;55.766;37.672;2023-07-13T09:50:42;98951.06;;;16.94;64.09
61906;BME280;47863;55.766;37.672;2023-07-13T09:53:13;98955.34;;;16.77;64.47
61906;BME280;47863;55.766;37.672;2023-07-13T09:55:41;98943.34;;;16.66;64.58
61906;BME280;47863;55.766;37.672;2023-07-13T09:58:16;98944.63;;;16.63;64.64
61906;BME280;47863;55.766;37.672;2023-07-13T10:00:54;98924.59;;;16.46;65.41
61906;BME280;47863;55.766;37.672;2023-07-13T10:03:27;98944.75;;;16.50;65.48
61906;BME280;47863;55.766;37.672;2023-07-13T10:05:53;98921.63;;;16.29;65.32
61906;BME280;47863;55.766;37.672;2023-07-13T10:08:28;98943.53;;;16.46;65.71
61906;BME280;47863;55.766;37.672;2023-07-13T10:13:42;98935.31;;;16.34;65.85
61906;BME280;47863;55.766;37.672;2023-07-13T10:16:09;98941.16;;;16.31;65.88
61906;BME280;47863;55.766;37.672;2023-07-13T10:18:43;98928.97;;;16.22;66.18
61906;BME280;47863;55.766;37.672;2023-07-13T10:21:14;98952.19;;;16.30;65.66
61906;BME280;47863;55.766;37.672;2023-07-13T10:23:40;98957.38;;;16.31;65.54
61906;BME280;47863;55.766;37.672;2023-07-13T10:26:17;98945.97;;;16.29;66.54
61906;BME280;47863;55.766;37.672;2023-07-13T10:28:47;98929.69;;;16.04;68.05
61906;BME280;47863;55.766;37.672;2023-07-13T10:31:17;98919.91;;;15.78;69.42
61906;BME280;47863;55.766;37.672;2023-07-13T10:33:43;98948.53;;;15.72;69.15
61906;BME280;47863;55.766;37.672;2023-07-13T10:38:45;98950.69;;;15.57;68.58
61906;BME280;47863;55.766;37.672;2023-07-13T10:41:15;98934.94;;;15.47;68.89
61906;BME280;47863;55.766;37.672;2023-07-13T10:43:45;98955.06;;;15.51;69.57
61906;BME280;47863;55.766;37.672;2023-07-13T10:46:14;98957.59;;;15.39;69.65
61906;BME280;47863;55.766;37.672;2023-07-13T10:48:43;98958.03;;;15.30;69.26
61906;BME280;47863;55.766;37.672;2023-07-13T10:51:13;98941.28;;;15.07;69.85
61906;BME280;47863;55.766;37.672;2023-07-13T10:53:39;98935.91;;;14.94;70.23
61906;BME280;47863;55.766;37.672;2023-07-13T10:56:30;98970.75;;;15.02;70.00
61906;BME280;47863;55.766;37.672;2023-07-13T11:01:58;98955.41;;;14.83;71.19
61906;BME280;47863;55.766;37.672;2023-07-13T11:04:25;98973.50;;;14.89;70.64
61906;BME280;47863;55.766;37.672;2023-07-13T11:07:11;98968.28;;;14.87;70.54
61906;BME280;47863;55.766;37.672;2023-07-13T11:09:40;98968.91;;;14.83;71.49
61906;BME280;47863;55.766;37.672;2023-07-13T11:22:50;98942.97;;;14.48;72.57
61906;BME280;47863;55.766;37.672;2023-07-13T11:27:50;98945.91;;;14.54;73.00
61906;BME280;47863;55.766;37.672;2023-07-13T11:32:41;98934.72;;;14.57;71.92
61906;BME280;47863;55.766;37.672;2023-07-13T11:35:14;98957.53;;;14.74;71.78
61906;BME280;47863;55.766;37.672;2023-07-13T11:37:45;98882.06;;;14.34;71.38
61906;BME280;47863;55.766;37.672;2023-07-13T11:40:14;98958.75;;;14.92;71.41
61906;BME280;47863;55.766;37.672;2023-07-13T11:42:40;98948.78;;;14.92;71.75
61906;BME280;47863;55.766;37.672;2023-07-13T11:45:19;98936.75;;;14.88;71.39
61906;BME280;47863;55.766;37.672;2023-07-13T11:47:45;98933.25;;;14.87;71.48
61906;BME280;47863;55.766;37.672;2023-07-13T11:50:23;98962.25;;;15.05;71.14
61906;BME280;47863;55.766;37.672;2023-07-13T11:52:50;98916.03;;;14.95;70.68
61906;BME280;47863;55.766;37.672;2023-07-13T11:55:18;98951.63;;;15.24;70.76
61906;BME280;47863;55.766;37.672;2023-07-13T11:57:50;98943.13;;;15.27;70.52
61906;BME280;47863;55.766;37.672;2023-07-13T12:00:23;98952.22;;;15.33;70.17
61906;BME280;47863;55.766;37.672;2023-07-13T12:02:54;98962.13;;;15.45;70.23
61906;BME280;47863;55.766;37.672;2023-07-13T12:05:21;98943.44;;;15.51;69.79
61906;BME280;47863;55.766;37.672;2023-07-13T12:07:48;98957.97;;;15.56;69.78
61906;BME280;47863;55.766;37.672;2023-07-13T12:10:18;98955.63;;;15.60;70.13
61906;BME280;47863;55.766;37.672;2023-07-13T12:12:54;98934.75;;;15.42;70.30
61906;BME280;47863;55.766;37.672;2023-07-13T12:15:22;98957.72;;;15.58;70.39
61906;BME280;47863;55.766;37.672;2023-07-13T12:17:49;98947.38;;;15.55;71.27
61906;BME280;47863;55.766;37.672;2023-07-13T12:20:25;98958.13;;;15.61;71.42
61906;BME280;47863;55.766;37.672;2023-07-13T12:22:51;98948.41;;;15.60;71.19
61906;BME280;47863;55.766;37.672;2023-07-13T12:25:18;98951.25;;;15.65;71.50
61906;BME280;47863;55.766;37.672;2023-07-13T12:27:47;98934.09;;;15.53;71.84
61906;BME280;47863;55.766;37.672;2023-07-13T12:30:31;98947.16;;;15.56;72.20
61906;BME280;47863;55.766;37.672;2023-07-13T12:33:08;98947.78;;;15.52;72.46
61906;BME280;47863;55.766;37.672;2023-07-13T12:35:42;98943.66;;;15.49;72.04
61906;BME280;47863;55.766;37.672;2023-07-13T12:38:11;98943.25;;;15.52;71.99
61906;BME280;47863;55.766;37.672;2023-07-13T12:40:37;98925.00;;;15.41;72.00
61906;BME280;47863;55.766;37.672;2023-07-13T12:43:11;98937.84;;;15.45;71.89
61906;BME280;47863;55.766;37.672;2023-07-13T12:45:38;98941.16;;;15.54;71.49
61906;BME280;47863;55.766;37.672;2023-07-13T12:48:16;98922.47;;;15.46;71.57
61906;BME280;47863;55.766;37.672;2023-07-13T12:50:47;98939.94;;;15.50;71.88
61906;BME280;47863;55.766;37.672;2023-07-13T12:53:27;98954.41;;;15.62;71.13
61906;BME280;47863;55.766;37.672;2023-07-13T12:55:55;98945.84;;;15.65;71.12
61906;BME280;47863;55.766;37.672;2023-07-13T12:58:31;98908.38;;;15.51;71.06
61906;BME280;47863;55.766;37.672;2023-07-13T13:00:59;98931.13;;;15.61;71.27
61906;BME280;47863;55.766;37.672;2023-07-13T13:03:35;98912.94;;;15.50;71.77
61906;BME280;47863;55.766;37.672;2023-07-13T13:06:05;98943.63;;;15.56;71.60
61906;BME280;47863;55.766;37.672;2023-07-13T13:08:33;98928.50;;;15.48;71.44
61906;BME280;47863;55.766;37.672;2023-07-13T13:10:59;98930.97;;;15.56;71.33
61906;BME280;47863;55.766;37.672;2023-07-13T13:13:25;98936.13;;;15.58;70.92
61906;BME280;47863;55.766;37.672;2023-07-13T13:15:54;98937.16;;;15.63;71.37
61906;BME280;47863;55.766;37.672;2023-07-13T13:18:21;98942.13;;;15.66;71.26
61906;BME280;47863;55.766;37.672;2023-07-13T13:20:49;98939.41;;;15.73;71.10
61906;BME280;47863;55.766;37.672;2023-07-13T13:23:17;98937.13;;;15.77;70.97
61906;BME280;47863;55.766;37.672;2023-07-13T13:25:45;98939.41;;;15.80;70.95
61906;BME280;47863;55.766;37.672;2023-07-13T13:28:14;98945.41;;;15.82;71.11